sensor_id;sensor_type;location;lat;lon;timestamp;P1;durP1;ratioP1;P2;durP2;ratioP2
38787;SDS011;24536;45.488;12.238;2022-07-24T00:02:25;4.57;;;2.40;;
38787;SDS011;24536;45.488;12.238;2022-07-24T00:04:51;6.38;;;2.95;;
38787;SDS011;24536;45.488;12.238;2022-07-24T00:07:21;6.43;;;2.08;;
38787;SDS011;24536;45.488;12.238;2022-07-24T00:09:47;5.35;;;2.45;;
38787;SDS011;24536;45.488;12.238;2022-07-24T00:12:13;4.63;;;2.28;;
38787;SDS011;24536;45.488;12.238;2022-07-24T00:14:38;3.92;;;2.63;;
38787;SDS011;24536;45.488;12.238;2022-07-24T00:17:04;3.65;;;2.70;;
38787;SDS011;24536;45.488;12.238;2022-07-24T00:19:29;4.07;;;2.42;;
38787;SDS011;24536;45.488;12.238;2022-07-24T00:21:55;3.05;;;2.67;;
38787;SDS011;24536;45.488;12.238;2022-07-24T00:24:22;2.20;;;2.00;;
38787;SDS011;24536;45.488;12.238;2022-07-24T00:26:48;7.05;;;2.42;;
38787;SDS011;24536;45.488;12.238;2022-07-24T00:29:13;5.47;;;2.40;;
38787;SDS011;24536;45.488;12.238;2022-07-24T00:31:39;4.78;;;2.58;;
38787;SDS011;24536;45.488;12.238;2022-07-24T00:34:05;2.72;;;2.10;;
38787;SDS011;24536;45.488;12.238;2022-07-24T00:36:30;2.25;;;2.05;;
38787;SDS011;24536;45.488;12.238;2022-07-24T00:38:56;4.40;;;2.47;;
38787;SDS011;24536;45.488;12.238;2022-07-24T00:41:22;4.13;;;1.88;;
38787;SDS011;24536;45.488;12.238;2022-07-24T00:44:07;3.75;;;1.90;;
38787;SDS011;24536;45.488;12.238;2022-07-24T00:46:38;3.30;;;2.22;;
38787;SDS011;24536;45.488;12.238;2022-07-24T00:49:06;4.32;;;2.63;;
38787;SDS011;24536;45.488;12.238;2022-07-24T00:51:33;3.08;;;2.17;;
38787;SDS011;24536;45.488;12.238;2022-07-24T00:54:02;2.13;;;1.90;;
38787;SDS011;24536;45.488;12.238;2022-07-24T00:56:29;5.45;;;2.67;;
38787;SDS011;24536;45.488;12.238;2022-07-24T00:58:55;4.40;;;2.63;;
38787;SDS011;24536;45.488;12.238;2022-07-24T01:01:20;5.47;;;2.83;;
38787;SDS011;24536;45.488;12.238;2022-07-24T01:03:46;3.38;;;2.55;;
38787;SDS011;24536;45.488;12.238;2022-07-24T01:06:12;3.33;;;2.50;;
38787;SDS011;24536;45.488;12.238;2022-07-24T01:08:39;3.28;;;2.20;;
38787;SDS011;24536;45.488;12.238;2022-07-24T01:11:05;3.60;;;2.60;;
38787;SDS011;24536;45.488;12.238;2022-07-24T01:13:31;3.28;;;2.97;;
38787;SDS011;24536;45.488;12.238;2022-07-24T01:15:57;2.90;;;2.10;;
38787;SDS011;24536;45.488;12.238;2022-07-24T01:18:23;3.85;;;2.58;;
38787;SDS011;24536;45.488;12.238;2022-07-24T01:20:49;4.25;;;2.40;;
38787;SDS011;24536;45.488;12.238;2022-07-24T01:23:15;3.22;;;2.40;;
38787;SDS011;24536;45.488;12.238;2022-07-24T01:25:41;3.80;;;2.10;;
38787;SDS011;24536;45.488;12.238;2022-07-24T01:28:07;3.28;;;2.40;;
38787;SDS011;24536;45.488;12.238;2022-07-24T01:30:33;2.70;;;2.10;;
38787;SDS011;24536;45.488;12.238;2022-07-24T01:32:59;6.82;;;2.30;;
38787;SDS011;24536;45.488;12.238;2022-07-24T01:35:25;2.38;;;2.17;;
38787;SDS011;24536;45.488;12.238;2022-07-24T01:37:51;3.90;;;2.33;;
38787;SDS011;24536;45.488;12.238;2022-07-24T01:40:18;2.75;;;2.10;;
38787;SDS011;24536;45.488;12.238;2022-07-24T01:42:44;2.40;;;2.20;;
38787;SDS011;24536;45.488;12.238;2022-07-24T01:45:09;4.13;;;2.20;;
38787;SDS011;24536;45.488;12.238;2022-07-24T01:47:35;2.70;;;2.25;;
38787;SDS011;24536;45.488;12.238;2022-07-24T01:50:01;2.22;;;1.98;;
38787;SDS011;24536;45.488;12.238;2022-07-24T01:52:27;2.55;;;2.30;;
38787;SDS011;24536;45.488;12.238;2022-07-24T01:54:53;4.35;;;2.25;;
38787;SDS011;24536;45.488;12.238;2022-07-24T01:57:19;4.65;;;3.22;;
38787;SDS011;24536;45.488;12.238;2022-07-24T01:59:45;3.15;;;2.85;;
38787;SDS011;24536;45.488;12.238;2022-07-24T02:02:11;4.32;;;2.50;;
38787;SDS011;24536;45.488;12.238;2022-07-24T02:04:37;2.95;;;2.35;;
38787;SDS011;24536;45.488;12.238;2022-07-24T02:07:03;5.90;;;2.90;;
38787;SDS011;24536;45.488;12.238;2022-07-24T02:09:29;5.65;;;2.83;;
38787;SDS011;24536;45.488;12.238;2022-07-24T02:11:54;4.45;;;3.05;;
38787;SDS011;24536;45.488;12.238;2022-07-24T02:14:20;5.85;;;3.20;;
38787;SDS011;24536;45.488;12.238;2022-07-24T02:16:46;8.05;;;3.45;;
38787;SDS011;24536;45.488;12.238;2022-07-24T02:19:12;4.22;;;3.38;;
38787;SDS011;24536;45.488;12.238;2022-07-24T02:21:38;7.10;;;3.67;;
38787;SDS011;24536;45.488;12.238;2022-07-24T02:24:04;4.68;;;3.53;;
38787;SDS011;24536;45.488;12.238;2022-07-24T02:26:30;6.65;;;3.10;;
38787;SDS011;24536;45.488;12.238;2022-07-24T02:28:56;3.38;;;3.08;;
38787;SDS011;24536;45.488;12.238;2022-07-24T02:31:21;3.25;;;2.95;;
38787;SDS011;24536;45.488;12.238;2022-07-24T02:33:47;3.90;;;2.80;;
38787;SDS011;24536;45.488;12.238;2022-07-24T02:36:15;5.30;;;3.03;;
38787;SDS011;24536;45.488;12.238;2022-07-24T02:38:41;5.22;;;3.10;;
38787;SDS011;24536;45.488;12.238;2022-07-24T02:41:07;6.13;;;2.65;;
38787;SDS011;24536;45.488;12.238;2022-07-24T02:43:33;4.38;;;3.10;;
38787;SDS011;24536;45.488;12.238;2022-07-24T02:45:58;4.88;;;2.95;;
38787;SDS011;24536;45.488;12.238;2022-07-24T02:48:24;5.47;;;3.20;;
38787;SDS011;24536;45.488;12.238;2022-07-24T02:50:51;6.22;;;3.63;;
38787;SDS011;24536;45.488;12.238;2022-07-24T02:53:17;5.15;;;3.50;;
38787;SDS011;24536;45.488;12.238;2022-07-24T02:55:43;5.00;;;3.50;;
38787;SDS011;24536;45.488;12.238;2022-07-24T02:58:09;4.68;;;3.65;;
38787;SDS011;24536;45.488;12.238;2022-07-24T03:00:34;4.95;;;3.35;;
38787;SDS011;24536;45.488;12.238;2022-07-24T03:03:00;4.75;;;3.70;;
38787;SDS011;24536;45.488;12.238;2022-07-24T03:05:27;4.18;;;3.55;;
38787;SDS011;24536;45.488;12.238;2022-07-24T03:07:52;5.30;;;4.22;;
38787;SDS011;24536;45.488;12.238;2022-07-24T03:10:18;6.47;;;4.60;;
38787;SDS011;24536;45.488;12.238;2022-07-24T03:12:44;5.65;;;4.45;;
38787;SDS011;24536;45.488;12.238;2022-07-24T03:15:10;4.10;;;3.70;;
38787;SDS011;24536;45.488;12.238;2022-07-24T03:17:37;4.22;;;3.72;;
38787;SDS011;24536;45.488;12.238;2022-07-24T03:20:03;4.20;;;3.80;;
38787;SDS011;24536;45.488;12.238;2022-07-24T03:22:29;5.32;;;3.40;;
38787;SDS011;24536;45.488;12.238;2022-07-24T03:24:55;5.63;;;2.70;;
38787;SDS011;24536;45.488;12.238;2022-07-24T03:27:21;4.78;;;2.70;;
38787;SDS011;24536;45.488;12.238;2022-07-24T03:29:46;2.63;;;2.22;;
38787;SDS011;24536;45.488;12.238;2022-07-24T03:32:13;3.15;;;2.38;;
38787;SDS011;24536;45.488;12.238;2022-07-24T03:34:39;5.50;;;2.50;;
38787;SDS011;24536;45.488;12.238;2022-07-24T03:37:05;2.78;;;1.90;;
38787;SDS011;24536;45.488;12.238;2022-07-24T03:39:31;4.45;;;2.85;;
38787;SDS011;24536;45.488;12.238;2022-07-24T03:41:56;2.40;;;2.08;;
38787;SDS011;24536;45.488;12.238;2022-07-24T03:44:22;5.13;;;3.17;;
38787;SDS011;24536;45.488;12.238;2022-07-24T03:46:48;3.60;;;2.85;;
38787;SDS011;24536;45.488;12.238;2022-07-24T03:49:13;3.40;;;3.10;;
38787;SDS011;24536;45.488;12.238;2022-07-24T03:51:39;3.08;;;2.75;;
38787;SDS011;24536;45.488;12.238;2022-07-24T03:54:05;9.85;;;3.38;;
38787;SDS011;24536;45.488;12.238;2022-07-24T03:56:30;3.95;;;3.00;;
38787;SDS011;24536;45.488;12.238;2022-07-24T03:58:56;5.57;;;3.47;;
38787;SDS011;24536;45.488;12.238;2022-07-24T04:01:22;4.32;;;2.88;;
38787;SDS011;24536;45.488;12.238;2022-07-24T04:03:48;4.38;;;2.92;;
38787;SDS011;24536;45.488;12.238;2022-07-24T04:06:13;4.68;;;2.45;;
38787;SDS011;24536;45.488;12.238;2022-07-24T04:08:39;5.80;;;2.70;;
38787;SDS011;24536;45.488;12.238;2022-07-24T04:11:05;3.28;;;2.58;;
38787;SDS011;24536;45.488;12.238;2022-07-24T04:13:33;2.88;;;2.30;;
38787;SDS011;24536;45.488;12.238;2022-07-24T04:15:59;5.80;;;3.28;;
38787;SDS011;24536;45.488;12.238;2022-07-24T04:18:25;3.50;;;2.80;;
38787;SDS011;24536;45.488;12.238;2022-07-24T04:20:50;3.80;;;2.95;;
38787;SDS011;24536;45.488;12.238;2022-07-24T04:23:16;5.38;;;2.67;;
38787;SDS011;24536;45.488;12.238;2022-07-24T04:25:42;7.43;;;3.17;;
38787;SDS011;24536;45.488;12.238;2022-07-24T04:28:08;5.32;;;3.15;;
38787;SDS011;24536;45.488;12.238;2022-07-24T04:30:34;3.53;;;2.85;;
38787;SDS011;24536;45.488;12.238;2022-07-24T04:33:00;6.65;;;3.00;;
38787;SDS011;24536;45.488;12.238;2022-07-24T04:35:25;6.35;;;2.83;;
38787;SDS011;24536;45.488;12.238;2022-07-24T04:37:51;3.90;;;2.92;;
38787;SDS011;24536;45.488;12.238;2022-07-24T04:40:17;3.53;;;3.20;;
38787;SDS011;24536;45.488;12.238;2022-07-24T04:42:43;2.67;;;2.25;;
38787;SDS011;24536;45.488;12.238;2022-07-24T04:45:09;4.68;;;2.55;;
38787;SDS011;24536;45.488;12.238;2022-07-24T04:47:36;5.35;;;2.95;;
38787;SDS011;24536;45.488;12.238;2022-07-24T04:50:02;4.30;;;3.17;;
38787;SDS011;24536;45.488;12.238;2022-07-24T04:52:30;3.72;;;2.83;;
38787;SDS011;24536;45.488;12.238;2022-07-24T04:54:56;2.83;;;1.90;;
38787;SDS011;24536;45.488;12.238;2022-07-24T04:57:21;3.42;;;2.45;;
38787;SDS011;24536;45.488;12.238;2022-07-24T04:59:47;3.63;;;2.85;;
38787;SDS011;24536;45.488;12.238;2022-07-24T05:02:13;7.97;;;2.72;;
38787;SDS011;24536;45.488;12.238;2022-07-24T05:04:39;4.35;;;3.05;;
38787;SDS011;24536;45.488;12.238;2022-07-24T05:07:05;4.15;;;2.80;;
38787;SDS011;24536;45.488;12.238;2022-07-24T05:09:31;3.80;;;2.80;;
38787;SDS011;24536;45.488;12.238;2022-07-24T05:11:56;4.38;;;2.67;;
38787;SDS011;24536;45.488;12.238;2022-07-24T05:14:22;42.75;;;4.28;;
38787;SDS011;24536;45.488;12.238;2022-07-24T05:16:48;4.38;;;2.72;;
38787;SDS011;24536;45.488;12.238;2022-07-24T05:19:13;3.70;;;2.88;;
38787;SDS011;24536;45.488;12.238;2022-07-24T05:21:39;3.80;;;2.60;;
38787;SDS011;24536;45.488;12.238;2022-07-24T05:24:05;2.50;;;2.30;;
38787;SDS011;24536;45.488;12.238;2022-07-24T05:26:31;3.30;;;2.58;;
38787;SDS011;24536;45.488;12.238;2022-07-24T05:29:00;3.30;;;2.38;;
38787;SDS011;24536;45.488;12.238;2022-07-24T05:31:27;3.35;;;2.30;;
38787;SDS011;24536;45.488;12.238;2022-07-24T05:33:53;2.15;;;1.95;;
38787;SDS011;24536;45.488;12.238;2022-07-24T05:36:19;5.32;;;3.10;;
38787;SDS011;24536;45.488;12.238;2022-07-24T05:38:45;4.47;;;2.55;;
38787;SDS011;24536;45.488;12.238;2022-07-24T05:41:11;5.68;;;3.10;;
38787;SDS011;24536;45.488;12.238;2022-07-24T05:43:37;3.58;;;3.08;;
38787;SDS011;24536;45.488;12.238;2022-07-24T05:46:03;4.60;;;2.85;;
38787;SDS011;24536;45.488;12.238;2022-07-24T05:48:30;2.70;;;2.45;;
38787;SDS011;24536;45.488;12.238;2022-07-24T05:50:56;3.10;;;2.45;;
38787;SDS011;24536;45.488;12.238;2022-07-24T05:53:22;3.33;;;2.75;;
38787;SDS011;24536;45.488;12.238;2022-07-24T05:55:48;4.28;;;2.53;;
38787;SDS011;24536;45.488;12.238;2022-07-24T05:58:14;6.07;;;2.50;;
38787;SDS011;24536;45.488;12.238;2022-07-24T06:00:40;5.38;;;3.13;;
38787;SDS011;24536;45.488;12.238;2022-07-24T06:03:06;3.80;;;2.70;;
38787;SDS011;24536;45.488;12.238;2022-07-24T06:05:31;2.80;;;2.30;;
38787;SDS011;24536;45.488;12.238;2022-07-24T06:07:57;5.45;;;2.60;;
38787;SDS011;24536;45.488;12.238;2022-07-24T06:10:23;3.78;;;2.20;;
38787;SDS011;24536;45.488;12.238;2022-07-24T06:12:49;5.68;;;2.97;;
38787;SDS011;24536;45.488;12.238;2022-07-24T06:15:15;3.10;;;2.80;;
38787;SDS011;24536;45.488;12.238;2022-07-24T06:17:41;3.83;;;2.22;;
38787;SDS011;24536;45.488;12.238;2022-07-24T06:20:07;3.97;;;2.30;;
38787;SDS011;24536;45.488;12.238;2022-07-24T06:22:37;2.65;;;2.28;;
38787;SDS011;24536;45.488;12.238;2022-07-24T06:25:06;7.22;;;2.72;;
38787;SDS011;24536;45.488;12.238;2022-07-24T06:27:32;3.63;;;2.90;;
38787;SDS011;24536;45.488;12.238;2022-07-24T06:29:57;2.63;;;2.20;;
38787;SDS011;24536;45.488;12.238;2022-07-24T06:32:23;2.55;;;1.88;;
38787;SDS011;24536;45.488;12.238;2022-07-24T06:34:49;3.63;;;2.67;;
38787;SDS011;24536;45.488;12.238;2022-07-24T06:37:15;5.05;;;2.80;;
38787;SDS011;24536;45.488;12.238;2022-07-24T06:39:41;2.95;;;2.28;;
38787;SDS011;24536;45.488;12.238;2022-07-24T06:42:06;8.98;;;3.20;;
38787;SDS011;24536;45.488;12.238;2022-07-24T06:44:32;3.60;;;2.97;;
38787;SDS011;24536;45.488;12.238;2022-07-24T06:47:01;4.57;;;2.58;;
38787;SDS011;24536;45.488;12.238;2022-07-24T06:49:26;5.78;;;3.30;;
38787;SDS011;24536;45.488;12.238;2022-07-24T06:51:53;2.80;;;2.50;;
38787;SDS011;24536;45.488;12.238;2022-07-24T06:54:18;2.30;;;2.10;;
38787;SDS011;24536;45.488;12.238;2022-07-24T06:56:44;3.95;;;2.67;;
38787;SDS011;24536;45.488;12.238;2022-07-24T06:59:09;2.95;;;2.40;;
38787;SDS011;24536;45.488;12.238;2022-07-24T07:01:35;3.17;;;2.15;;
38787;SDS011;24536;45.488;12.238;2022-07-24T07:04:01;2.60;;;1.90;;
38787;SDS011;24536;45.488;12.238;2022-07-24T07:06:26;3.33;;;2.45;;
38787;SDS011;24536;45.488;12.238;2022-07-24T07:08:52;2.45;;;2.22;;
38787;SDS011;24536;45.488;12.238;2022-07-24T07:11:18;3.33;;;2.55;;
38787;SDS011;24536;45.488;12.238;2022-07-24T07:13:43;5.10;;;2.88;;
38787;SDS011;24536;45.488;12.238;2022-07-24T07:16:09;4.50;;;2.97;;
38787;SDS011;24536;45.488;12.238;2022-07-24T07:18:35;3.92;;;2.80;;
38787;SDS011;24536;45.488;12.238;2022-07-24T07:21:01;2.60;;;2.40;;
38787;SDS011;24536;45.488;12.238;2022-07-24T07:23:28;4.40;;;3.15;;
38787;SDS011;24536;45.488;12.238;2022-07-24T07:25:53;4.88;;;3.00;;
38787;SDS011;24536;45.488;12.238;2022-07-24T07:28:19;4.60;;;2.95;;
38787;SDS011;24536;45.488;12.238;2022-07-24T07:30:45;2.80;;;2.58;;
38787;SDS011;24536;45.488;12.238;2022-07-24T07:33:11;4.47;;;3.20;;
38787;SDS011;24536;45.488;12.238;2022-07-24T07:35:37;8.18;;;4.03;;
38787;SDS011;24536;45.488;12.238;2022-07-24T07:38:03;3.45;;;3.08;;
38787;SDS011;24536;45.488;12.238;2022-07-24T07:40:29;4.35;;;2.83;;
38787;SDS011;24536;45.488;12.238;2022-07-24T07:42:55;7.75;;;3.83;;
38787;SDS011;24536;45.488;12.238;2022-07-24T07:45:21;3.35;;;2.90;;
38787;SDS011;24536;45.488;12.238;2022-07-24T07:47:46;3.25;;;2.60;;
38787;SDS011;24536;45.488;12.238;2022-07-24T07:50:12;3.83;;;2.88;;
38787;SDS011;24536;45.488;12.238;2022-07-24T07:52:38;6.22;;;3.38;;
38787;SDS011;24536;45.488;12.238;2022-07-24T07:55:04;6.43;;;3.25;;
38787;SDS011;24536;45.488;12.238;2022-07-24T07:57:30;3.80;;;3.25;;
38787;SDS011;24536;45.488;12.238;2022-07-24T07:59:56;3.05;;;2.50;;
38787;SDS011;24536;45.488;12.238;2022-07-24T08:02:22;3.97;;;2.75;;
38787;SDS011;24536;45.488;12.238;2022-07-24T08:04:48;4.45;;;2.88;;
38787;SDS011;24536;45.488;12.238;2022-07-24T08:07:13;4.32;;;3.50;;
38787;SDS011;24536;45.488;12.238;2022-07-24T08:09:39;3.30;;;2.97;;
38787;SDS011;24536;45.488;12.238;2022-07-24T08:12:05;2.88;;;2.42;;
38787;SDS011;24536;45.488;12.238;2022-07-24T08:14:31;3.65;;;3.00;;
38787;SDS011;24536;45.488;12.238;2022-07-24T08:16:57;3.40;;;2.92;;
38787;SDS011;24536;45.488;12.238;2022-07-24T08:19:23;3.63;;;2.97;;
38787;SDS011;24536;45.488;12.238;2022-07-24T08:21:49;4.15;;;3.03;;
38787;SDS011;24536;45.488;12.238;2022-07-24T08:24:15;4.28;;;3.15;;
38787;SDS011;24536;45.488;12.238;2022-07-24T08:26:46;3.83;;;3.38;;
38787;SDS011;24536;45.488;12.238;2022-07-24T08:29:12;7.45;;;3.58;;
38787;SDS011;24536;45.488;12.238;2022-07-24T08:31:39;7.78;;;3.83;;
38787;SDS011;24536;45.488;12.238;2022-07-24T08:34:05;3.50;;;3.20;;
38787;SDS011;24536;45.488;12.238;2022-07-24T08:36:31;4.47;;;3.30;;
38787;SDS011;24536;45.488;12.238;2022-07-24T08:38:57;3.78;;;3.38;;
38787;SDS011;24536;45.488;12.238;2022-07-24T08:41:22;4.43;;;4.03;;
38787;SDS011;24536;45.488;12.238;2022-07-24T08:43:48;5.38;;;3.47;;
38787;SDS011;24536;45.488;12.238;2022-07-24T08:46:14;4.22;;;3.55;;
38787;SDS011;24536;45.488;12.238;2022-07-24T08:48:44;10.45;;;4.38;;
38787;SDS011;24536;45.488;12.238;2022-07-24T08:51:11;4.53;;;3.63;;
38787;SDS011;24536;45.488;12.238;2022-07-24T08:53:39;4.20;;;3.78;;
38787;SDS011;24536;45.488;12.238;2022-07-24T08:56:05;4.05;;;3.33;;
38787;SDS011;24536;45.488;12.238;2022-07-24T08:58:35;4.88;;;4.20;;
38787;SDS011;24536;45.488;12.238;2022-07-24T09:01:02;10.05;;;4.07;;
38787;SDS011;24536;45.488;12.238;2022-07-24T09:03:28;4.05;;;3.63;;
38787;SDS011;24536;45.488;12.238;2022-07-24T09:06:02;3.50;;;2.90;;
38787;SDS011;24536;45.488;12.238;2022-07-24T09:10:58;3.20;;;2.80;;
38787;SDS011;24536;45.488;12.238;2022-07-24T09:13:26;6.72;;;3.80;;
38787;SDS011;24536;45.488;12.238;2022-07-24T09:20:54;7.10;;;3.22;;
38787;SDS011;24536;45.488;12.238;2022-07-24T09:23:20;3.22;;;2.92;;
38787;SDS011;24536;45.488;12.238;2022-07-24T09:25:52;3.55;;;3.05;;
38787;SDS011;24536;45.488;12.238;2022-07-24T09:28:19;4.78;;;3.45;;
38787;SDS011;24536;45.488;12.238;2022-07-24T09:30:46;6.60;;;3.38;;
38787;SDS011;24536;45.488;12.238;2022-07-24T09:35:44;3.78;;;3.47;;
38787;SDS011;24536;45.488;12.238;2022-07-24T09:38:15;6.25;;;3.33;;
38787;SDS011;24536;45.488;12.238;2022-07-24T09:40:44;4.18;;;3.17;;
38787;SDS011;24536;45.488;12.238;2022-07-24T09:43:34;6.05;;;3.47;;
38787;SDS011;24536;45.488;12.238;2022-07-24T09:48:31;4.53;;;3.53;;
38787;SDS011;24536;45.488;12.238;2022-07-24T09:51:02;5.53;;;3.40;;
38787;SDS011;24536;45.488;12.238;2022-07-24T09:53:30;3.33;;;2.95;;
38787;SDS011;24536;45.488;12.238;2022-07-24T09:56:01;4.07;;;3.17;;
38787;SDS011;24536;45.488;12.238;2022-07-24T09:58:33;5.07;;;2.75;;
38787;SDS011;24536;45.488;12.238;2022-07-24T10:01:03;4.28;;;3.13;;
38787;SDS011;24536;45.488;12.238;2022-07-24T10:03:32;3.95;;;3.05;;
38787;SDS011;24536;45.488;12.238;2022-07-24T10:06:00;4.03;;;2.83;;
38787;SDS011;24536;45.488;12.238;2022-07-24T10:08:29;2.90;;;2.13;;
38787;SDS011;24536;45.488;12.238;2022-07-24T10:10:56;3.42;;;2.53;;
38787;SDS011;24536;45.488;12.238;2022-07-24T10:13:23;2.47;;;2.13;;
38787;SDS011;24536;45.488;12.238;2022-07-24T10:21:14;4.07;;;2.78;;
38787;SDS011;24536;45.488;12.238;2022-07-24T10:26:34;4.28;;;2.80;;
38787;SDS011;24536;45.488;12.238;2022-07-24T10:29:07;3.67;;;2.65;;
38787;SDS011;24536;45.488;12.238;2022-07-24T10:31:37;5.60;;;3.00;;
38787;SDS011;24536;45.488;12.238;2022-07-24T10:34:12;4.80;;;2.65;;
38787;SDS011;24536;45.488;12.238;2022-07-24T10:37:09;4.55;;;3.17;;
38787;SDS011;24536;45.488;12.238;2022-07-24T10:39:39;2.90;;;2.70;;
38787;SDS011;24536;45.488;12.238;2022-07-24T10:42:11;6.97;;;2.88;;
38787;SDS011;24536;45.488;12.238;2022-07-24T10:44:37;3.88;;;2.67;;
38787;SDS011;24536;45.488;12.238;2022-07-24T10:47:12;5.95;;;2.90;;
38787;SDS011;24536;45.488;12.238;2022-07-24T10:52:24;7.18;;;3.58;;
38787;SDS011;24536;45.488;12.238;2022-07-24T10:57:57;3.65;;;3.00;;
38787;SDS011;24536;45.488;12.238;2022-07-24T11:00:25;3.25;;;2.85;;
38787;SDS011;24536;45.488;12.238;2022-07-24T11:02:59;4.43;;;3.03;;
38787;SDS011;24536;45.488;12.238;2022-07-24T11:05:31;3.05;;;2.80;;
38787;SDS011;24536;45.488;12.238;2022-07-24T11:08:12;5.22;;;3.40;;
38787;SDS011;24536;45.488;12.238;2022-07-24T11:18:39;4.95;;;3.40;;
38787;SDS011;24536;45.488;12.238;2022-07-24T11:21:33;3.17;;;2.80;;
38787;SDS011;24536;45.488;12.238;2022-07-24T11:29:50;4.18;;;2.70;;
38787;SDS011;24536;45.488;12.238;2022-07-24T11:32:18;3.65;;;2.90;;
38787;SDS011;24536;45.488;12.238;2022-07-24T11:34:44;3.60;;;3.30;;
38787;SDS011;24536;45.488;12.238;2022-07-24T11:37:11;5.72;;;3.08;;
38787;SDS011;24536;45.488;12.238;2022-07-24T11:39:38;4.50;;;2.70;;
38787;SDS011;24536;45.488;12.238;2022-07-24T11:42:06;3.05;;;2.38;;
38787;SDS011;24536;45.488;12.238;2022-07-24T11:44:44;3.05;;;2.63;;
38787;SDS011;24536;45.488;12.238;2022-07-24T11:47:15;3.40;;;2.88;;
38787;SDS011;24536;45.488;12.238;2022-07-24T11:52:14;3.50;;;2.55;;
38787;SDS011;24536;45.488;12.238;2022-07-24T11:54:41;4.57;;;3.22;;
38787;SDS011;24536;45.488;12.238;2022-07-24T11:57:16;2.50;;;2.30;;
38787;SDS011;24536;45.488;12.238;2022-07-24T11:59:42;4.43;;;2.90;;
38787;SDS011;24536;45.488;12.238;2022-07-24T12:02:09;5.15;;;2.60;;
38787;SDS011;24536;45.488;12.238;2022-07-24T12:04:35;4.70;;;2.50;;
38787;SDS011;24536;45.488;12.238;2022-07-24T12:07:07;4.70;;;2.50;;
38787;SDS011;24536;45.488;12.238;2022-07-24T12:09:56;6.32;;;2.03;;
38787;SDS011;24536;45.488;12.238;2022-07-24T12:12:28;4.43;;;2.30;;
38787;SDS011;24536;45.488;12.238;2022-07-24T12:15:12;2.50;;;2.30;;
38787;SDS011;24536;45.488;12.238;2022-07-24T12:20:35;3.80;;;2.33;;
38787;SDS011;24536;45.488;12.238;2022-07-24T12:23:06;4.45;;;2.25;;
38787;SDS011;24536;45.488;12.238;2022-07-24T12:25:34;2.65;;;2.45;;
38787;SDS011;24536;45.488;12.238;2022-07-24T12:28:07;3.78;;;2.20;;
38787;SDS011;24536;45.488;12.238;2022-07-24T12:30:37;2.88;;;2.25;;
38787;SDS011;24536;45.488;12.238;2022-07-24T12:35:34;2.95;;;2.33;;
38787;SDS011;24536;45.488;12.238;2022-07-24T12:38:38;5.13;;;2.53;;
38787;SDS011;24536;45.488;12.238;2022-07-24T12:46:20;3.10;;;1.90;;
38787;SDS011;24536;45.488;12.238;2022-07-24T12:49:01;4.82;;;2.30;;
38787;SDS011;24536;45.488;12.238;2022-07-24T12:54:20;3.03;;;2.40;;
38787;SDS011;24536;45.488;12.238;2022-07-24T12:56:51;2.88;;;2.45;;
38787;SDS011;24536;45.488;12.238;2022-07-24T12:59:22;2.85;;;2.13;;
38787;SDS011;24536;45.488;12.238;2022-07-24T13:01:56;2.83;;;2.40;;
38787;SDS011;24536;45.488;12.238;2022-07-24T13:04:50;4.25;;;2.35;;
38787;SDS011;24536;45.488;12.238;2022-07-24T13:07:18;2.30;;;2.08;;
38787;SDS011;24536;45.488;12.238;2022-07-24T13:09:45;2.78;;;2.58;;
38787;SDS011;24536;45.488;12.238;2022-07-24T13:12:11;5.45;;;2.70;;
38787;SDS011;24536;45.488;12.238;2022-07-24T13:14:37;2.92;;;2.38;;
38787;SDS011;24536;45.488;12.238;2022-07-24T13:17:04;3.10;;;2.33;;
38787;SDS011;24536;45.488;12.238;2022-07-24T13:19:38;3.95;;;2.35;;
38787;SDS011;24536;45.488;12.238;2022-07-24T13:22:05;2.97;;;2.58;;
38787;SDS011;24536;45.488;12.238;2022-07-24T13:24:31;3.00;;;2.63;;
38787;SDS011;24536;45.488;12.238;2022-07-24T13:27:02;2.85;;;2.40;;
38787;SDS011;24536;45.488;12.238;2022-07-24T13:29:29;4.93;;;2.60;;
38787;SDS011;24536;45.488;12.238;2022-07-24T13:31:55;8.80;;;2.85;;
38787;SDS011;24536;45.488;12.238;2022-07-24T13:34:21;6.28;;;2.70;;
38787;SDS011;24536;45.488;12.238;2022-07-24T13:36:47;4.70;;;2.60;;
38787;SDS011;24536;45.488;12.238;2022-07-24T13:39:13;5.43;;;2.70;;
38787;SDS011;24536;45.488;12.238;2022-07-24T13:41:40;2.72;;;2.53;;
38787;SDS011;24536;45.488;12.238;2022-07-24T13:44:06;3.15;;;2.67;;
38787;SDS011;24536;45.488;12.238;2022-07-24T13:46:32;4.10;;;2.47;;
38787;SDS011;24536;45.488;12.238;2022-07-24T13:48:59;3.47;;;2.70;;
38787;SDS011;24536;45.488;12.238;2022-07-24T13:51:26;5.03;;;2.60;;
38787;SDS011;24536;45.488;12.238;2022-07-24T13:53:53;4.00;;;3.13;;
38787;SDS011;24536;45.488;12.238;2022-07-24T13:56:19;4.38;;;2.97;;
38787;SDS011;24536;45.488;12.238;2022-07-24T13:58:47;4.07;;;2.60;;
38787;SDS011;24536;45.488;12.238;2022-07-24T14:01:13;4.03;;;2.80;;
38787;SDS011;24536;45.488;12.238;2022-07-24T14:03:41;3.78;;;2.78;;
38787;SDS011;24536;45.488;12.238;2022-07-24T14:06:08;2.83;;;2.55;;
38787;SDS011;24536;45.488;12.238;2022-07-24T14:08:35;3.47;;;2.90;;
38787;SDS011;24536;45.488;12.238;2022-07-24T14:11:02;3.05;;;2.75;;
38787;SDS011;24536;45.488;12.238;2022-07-24T14:13:27;3.90;;;2.85;;
38787;SDS011;24536;45.488;12.238;2022-07-24T14:15:53;4.75;;;2.88;;
38787;SDS011;24536;45.488;12.238;2022-07-24T14:18:19;3.17;;;2.58;;
38787;SDS011;24536;45.488;12.238;2022-07-24T14:20:45;4.70;;;2.65;;
38787;SDS011;24536;45.488;12.238;2022-07-24T14:23:11;3.20;;;2.90;;
38787;SDS011;24536;45.488;12.238;2022-07-24T14:25:37;3.08;;;2.55;;
38787;SDS011;24536;45.488;12.238;2022-07-24T14:28:03;3.47;;;2.78;;
38787;SDS011;24536;45.488;12.238;2022-07-24T14:30:29;4.65;;;3.13;;
38787;SDS011;24536;45.488;12.238;2022-07-24T14:32:55;3.95;;;3.05;;
38787;SDS011;24536;45.488;12.238;2022-07-24T14:35:21;4.80;;;3.03;;
38787;SDS011;24536;45.488;12.238;2022-07-24T14:37:47;3.10;;;2.50;;
38787;SDS011;24536;45.488;12.238;2022-07-24T14:40:12;4.63;;;2.53;;
38787;SDS011;24536;45.488;12.238;2022-07-24T14:42:38;2.92;;;2.63;;
38787;SDS011;24536;45.488;12.238;2022-07-24T14:45:04;3.65;;;2.72;;
38787;SDS011;24536;45.488;12.238;2022-07-24T14:47:30;5.68;;;2.83;;
38787;SDS011;24536;45.488;12.238;2022-07-24T14:49:56;3.67;;;2.78;;
38787;SDS011;24536;45.488;12.238;2022-07-24T14:52:22;4.55;;;3.08;;
38787;SDS011;24536;45.488;12.238;2022-07-24T14:54:48;4.85;;;2.70;;
38787;SDS011;24536;45.488;12.238;2022-07-24T14:57:15;3.97;;;2.85;;
38787;SDS011;24536;45.488;12.238;2022-07-24T14:59:41;4.20;;;2.75;;
38787;SDS011;24536;45.488;12.238;2022-07-24T15:02:07;3.70;;;2.97;;
38787;SDS011;24536;45.488;12.238;2022-07-24T15:04:34;3.15;;;2.83;;
38787;SDS011;24536;45.488;12.238;2022-07-24T15:07:00;7.18;;;3.10;;
38787;SDS011;24536;45.488;12.238;2022-07-24T15:09:26;3.17;;;2.88;;
38787;SDS011;24536;45.488;12.238;2022-07-24T15:11:51;3.13;;;2.83;;
38787;SDS011;24536;45.488;12.238;2022-07-24T15:14:17;2.95;;;2.60;;
38787;SDS011;24536;45.488;12.238;2022-07-24T15:16:43;4.32;;;2.75;;
38787;SDS011;24536;45.488;12.238;2022-07-24T15:19:08;3.42;;;2.83;;
38787;SDS011;24536;45.488;12.238;2022-07-24T15:21:35;3.10;;;2.70;;
38787;SDS011;24536;45.488;12.238;2022-07-24T15:24:01;5.55;;;3.00;;
38787;SDS011;24536;45.488;12.238;2022-07-24T15:26:27;3.95;;;2.97;;
38787;SDS011;24536;45.488;12.238;2022-07-24T15:28:53;7.30;;;2.97;;
38787;SDS011;24536;45.488;12.238;2022-07-24T15:31:19;3.00;;;2.67;;